This is the latest recevied weather packets stored in our database for station/object Seibranz. If no packets are shown the sender has not sent any weather packets the latest 10 day(s).
| Time | Temp. | Humidity | Pressure | Rain* | Wind** | Luminosity | Snow |
|---|---|---|---|---|---|---|---|
| 1778058131 | 13.33° C | 71% | 1005.5 hPa | 0 mm | - | - | - |
| 1778056331 | 13.33° C | 77% | 1005.1 hPa | 0 mm | - | - | - |
| 1778054532 | 12.22° C | 80% | 1005.4 hPa | 0 mm | - | - | - |
| 1778052731 | 11.11° C | 86% | 1005.2 hPa | 0 mm | - | - | - |
| 1778050932 | 11.11° C | 86% | 1005.7 hPa | 0 mm | - | - | - |
| 1778049131 | 11.11° C | 86% | 1005.8 hPa | 0 mm | - | - | - |
| 1778047331 | 10° C | 92% | 1005.5 hPa | 0 mm | - | - | - |
| 1778045531 | 8.89° C | 93% | 1006 hPa | 0 mm | - | - | - |
| 1778043731 | 7.22° C | 93% | 1005.8 hPa | 0 mm | - | - | - |
| 1778041932 | 6.67° C | 93% | 1006.1 hPa | 0 mm | - | - | - |
| 1778040131 | 7.22° C | 93% | 1006.4 hPa | 0 mm | - | - | - |
| 1778038331 | 6.11° C | 92% | 1006.6 hPa | 0 mm | - | - | - |
| 1778036532 | 7.22° C | 92% | 1007 hPa | 0 mm | - | - | - |
| 1778034732 | 7.22° C | 92% | 1007.1 hPa | 0 mm | - | - | - |
| 1778032932 | 7.78° C | 91% | 1007.3 hPa | 0 mm | - | - | - |
| 1778031131 | 7.78° C | 92% | 1007.5 hPa | 0 mm | - | - | - |
| 1778029332 | 8.89° C | 90% | 1007.8 hPa | 0 mm | - | - | - |
| 1778027529 | 8.89° C | 91% | 1007.8 hPa | 0 mm | - | - | - |
| 1778025729 | 8.89° C | 91% | 1008 hPa | 0 mm | - | - | - |
| 1778023929 | 8.33° C | 92% | 1008.4 hPa | 0 mm | - | - | - |
| 1778022129 | 8.89° C | 91% | 1008.5 hPa | 0 mm | - | - | - |
| 1778020330 | 9.44° C | 91% | 1008.7 hPa | 0 mm | - | - | - |
| 1778016731 | 8.89° C | 92% | 1008.7 hPa | 2.29 mm | - | - | - |
| 1778014935 | 8.89° C | 92% | 1008.8 hPa | 2.29 mm | - | - | - |
| 1778013129 | 9.44° C | 91% | 1008.7 hPa | 2.29 mm | - | - | - |
* Rain since midnight (hover to see other rain measurements)
** Current wind speed in m/s (hover to see current wind gust speed)